Time;durP1;ratioP1;P1;durP2;ratioP2;P2;SDS_P1;SDS_P2;PMS_P1;PMS_P2;Temp;Humidity;BMP_temperature;BMP_pressure;BME280_temperature;BME280_humidity;BME280_pressure;Samples;Min_cycle;Max_cycle;Signal;HPM_P1;HPM_P2
2023/06/13 00:01:53;;;;;;;0.47;0.47;;;;;;;;;;7403879;19;20164;-88
2023/06/13 00:04:23;;;;;;;0.50;0.50;;;;;;;;;;7398572;19;20492;-89
2023/06/13 00:06:52;;;;;;;0.75;0.75;;;;;;;;;;7398694;19;20187;-89
2023/06/13 00:09:20;;;;;;;0.60;0.60;;;;;;;;;;7394860;19;20176;-89
2023/06/13 00:11:49;;;;;;;0.38;0.38;;;;;;;;;;7398355;19;20149;-88
2023/06/13 00:14:17;;;;;;;0.50;0.50;;;;;;;;;;7402041;19;20154;-87
2023/06/13 00:16:47;;;;;;;0.50;0.50;;;;;;;;;;7394117;19;20141;-89
2023/06/13 00:19:14;;;;;;;0.50;0.50;;;;;;;;;;7399608;19;20137;-88
2023/06/13 00:21:41;;;;;;;0.50;0.50;;;;;;;;;;7403855;19;20185;-88
2023/06/13 00:24:08;;;;;;;4.80;0.55;;;;;;;;;;7405841;19;20144;-89
2023/06/13 00:26:35;;;;;;;0.70;0.70;;;;;;;;;;7406616;19;20141;-88
2023/06/13 00:29:02;;;;;;;1.35;0.95;;;;;;;;;;7402109;19;20133;-88
2023/06/13 00:31:29;;;;;;;1.23;1.13;;;;;;;;;;7405096;19;20530;-88
2023/06/13 00:33:56;;;;;;;1.85;0.95;;;;;;;;;;7404407;19;20126;-88
2023/06/13 00:36:24;;;;;;;0.63;0.63;;;;;;;;;;7406332;19;20152;-89
2023/06/13 00:38:52;;;;;;;0.60;0.60;;;;;;;;;;7403202;19;20146;-89
2023/06/13 00:41:18;;;;;;;0.85;0.55;;;;;;;;;;7406325;19;20197;-88
2023/06/13 00:43:45;;;;;;;0.90;0.70;;;;;;;;;;7406597;19;20164;-90
2023/06/13 00:46:14;;;;;;;0.40;0.40;;;;;;;;;;7404233;19;20147;-88
2023/06/13 00:48:43;;;;;;;0.50;0.50;;;;;;;;;;7399328;19;20149;-90
2023/06/13 00:51:14;;;;;;;0.32;0.32;;;;;;;;;;7399883;19;20130;-89
2023/06/13 00:53:42;;;;;;;0.47;0.47;;;;;;;;;;7399569;19;20137;-90
2023/06/13 00:56:09;;;;;;;0.50;0.50;;;;;;;;;;7404509;19;20132;-87
2023/06/13 00:58:36;;;;;;;0.47;0.47;;;;;;;;;;7403371;19;20169;-89
2023/06/13 01:01:04;;;;;;;0.40;0.40;;;;;;;;;;7398490;19;20129;-90
2023/06/13 01:03:33;;;;;;;4.80;0.70;;;;;;;;;;7394057;19;20173;-90
2023/06/13 01:06:00;;;;;;;0.30;0.30;;;;;;;;;;7397902;19;20136;-90
2023/06/13 01:08:27;;;;;;;0.50;0.43;;;;;;;;;;7396115;19;20153;-89
2023/06/13 01:11:09;;;;;;;0.52;0.52;;;;;;;;;;7394660;19;20148;-90
2023/06/13 01:13:47;;;;;;;0.55;0.55;;;;;;;;;;7393054;19;20129;-89
2023/06/13 01:16:19;;;;;;;0.63;0.63;;;;;;;;;;7394656;19;20128;-90
2023/06/13 01:18:49;;;;;;;0.65;0.52;;;;;;;;;;7395925;19;20223;-90
2023/06/13 01:21:17;;;;;;;0.75;0.75;;;;;;;;;;7395627;19;20153;-90
2023/06/13 01:24:23;;;;;;;0.52;0.52;;;;;;;;;;7392673;19;20630;-90
2023/06/13 01:26:56;;;;;;;0.40;0.40;;;;;;;;;;7391910;19;20175;-89
2023/06/13 01:29:23;;;;;;;0.60;0.60;;;;;;;;;;7390949;19;20145;-90
2023/06/13 01:31:52;;;;;;;0.73;0.73;;;;;;;;;;7393499;19;20159;-90
2023/06/13 01:34:20;;;;;;;0.30;0.30;;;;;;;;;;7397559;19;20141;-90
2023/06/13 01:36:47;;;;;;;0.30;0.30;;;;;;;;;;7393938;19;20641;-89
2023/06/13 01:39:14;;;;;;;0.40;0.40;;;;;;;;;;7393873;19;20125;-90
2023/06/13 01:41:40;;;;;;;0.73;0.60;;;;;;;;;;7395135;19;20153;-89
2023/06/13 01:44:11;;;;;;;0.55;0.55;;;;;;;;;;7396504;19;20145;-89
2023/06/13 01:46:46;;;;;;;0.50;0.50;;;;;;;;;;7395577;19;20145;-89
2023/06/13 01:49:20;;;;;;;0.45;0.45;;;;;;;;;;7392065;19;20155;-90
2023/06/13 01:52:08;;;;;;;0.85;0.85;;;;;;;;;;7389320;19;20176;-90
2023/06/13 01:54:37;;;;;;;0.40;0.40;;;;;;;;;;7393415;19;20124;-89
2023/06/13 01:57:07;;;;;;;0.47;0.47;;;;;;;;;;7390895;19;20143;-89
2023/06/13 01:59:35;;;;;;;0.45;0.45;;;;;;;;;;7389736;19;20512;-88
2023/06/13 02:02:03;;;;;;;0.40;0.40;;;;;;;;;;7389907;19;20244;-90
2023/06/13 02:04:29;;;;;;;1.85;1.10;;;;;;;;;;7392663;19;20156;-90
2023/06/13 02:06:56;;;;;;;1.05;0.95;;;;;;;;;;7392454;19;20141;-90
2023/06/13 02:09:23;;;;;;;0.57;0.57;;;;;;;;;;7391320;19;20145;-90
2023/06/13 02:11:49;;;;;;;0.55;0.55;;;;;;;;;;7397765;19;20248;-89
2023/06/13 02:14:17;;;;;;;0.40;0.40;;;;;;;;;;7397268;19;20133;-88
2023/06/13 02:16:44;;;;;;;0.50;0.50;;;;;;;;;;7400411;19;20146;-88
2023/06/13 02:19:11;;;;;;;0.40;0.40;;;;;;;;;;7400681;19;20137;-88
2023/06/13 02:21:38;;;;;;;0.90;0.90;;;;;;;;;;7397772;19;20176;-90
2023/06/13 02:24:05;;;;;;;0.93;0.93;;;;;;;;;;7398549;19;20125;-91
2023/06/13 02:26:31;;;;;;;5.95;0.80;;;;;;;;;;7400138;19;20479;-90
2023/06/13 02:28:58;;;;;;;1.25;0.68;;;;;;;;;;7398685;19;20598;-91
2023/06/13 02:31:25;;;;;;;0.47;0.47;;;;;;;;;;7388893;19;20152;-91
2023/06/13 02:33:52;;;;;;;0.68;0.68;;;;;;;;;;7392634;19;20861;-90
2023/06/13 02:36:18;;;;;;;0.77;0.77;;;;;;;;;;7398390;19;20141;-91
2023/06/13 02:38:45;;;;;;;0.57;0.57;;;;;;;;;;7397602;19;20156;-88
2023/06/13 02:41:12;;;;;;;0.30;0.30;;;;;;;;;;7395160;19;20500;-91
2023/06/13 02:43:38;;;;;;;0.40;0.40;;;;;;;;;;7392705;19;20628;-90
2023/06/13 02:46:06;;;;;;;0.50;0.50;;;;;;;;;;7394530;19;20697;-90
2023/06/13 02:48:33;;;;;;;0.63;0.63;;;;;;;;;;7396571;19;20156;-90
2023/06/13 02:51:00;;;;;;;0.85;0.85;;;;;;;;;;7394941;19;20126;-91
2023/06/13 02:53:27;;;;;;;0.75;0.75;;;;;;;;;;7393805;19;20528;-91
2023/06/13 02:55:54;;;;;;;0.65;0.65;;;;;;;;;;7399043;19;20148;-90
2023/06/13 02:58:21;;;;;;;0.65;0.65;;;;;;;;;;7392924;19;20200;-91
2023/06/13 03:00:48;;;;;;;0.45;0.45;;;;;;;;;;7396653;19;20585;-91
2023/06/13 03:03:16;;;;;;;0.40;0.40;;;;;;;;;;7392204;19;20195;-91
2023/06/13 03:05:47;;;;;;;0.38;0.38;;;;;;;;;;7394738;19;20140;-91
2023/06/13 03:08:18;;;;;;;1.02;1.02;;;;;;;;;;7392020;19;20139;-89
2023/06/13 03:10:48;;;;;;;0.40;0.40;;;;;;;;;;7396384;19;20156;-90
2023/06/13 03:13:16;;;;;;;1.75;0.75;;;;;;;;;;7395762;19;20177;-90
2023/06/13 03:15:45;;;;;;;0.30;0.30;;;;;;;;;;7396303;19;20151;-90
2023/06/13 03:18:12;;;;;;;0.52;0.52;;;;;;;;;;7392526;19;20129;-90
2023/06/13 03:20:45;;;;;;;0.52;0.52;;;;;;;;;;7399153;19;20159;-90
2023/06/13 03:23:14;;;;;;;0.40;0.40;;;;;;;;;;7396275;19;20178;-91
2023/06/13 03:25:41;;;;;;;0.67;0.67;;;;;;;;;;7398033;19;20155;-90
2023/06/13 03:28:08;;;;;;;0.30;0.30;;;;;;;;;;7398625;19;20132;-90
2023/06/13 03:30:36;;;;;;;0.60;0.60;;;;;;;;;;7398836;19;20594;-90
2023/06/13 03:33:03;;;;;;;0.30;0.30;;;;;;;;;;7396311;19;20658;-89
2023/06/13 03:35:30;;;;;;;0.40;0.40;;;;;;;;;;7398324;19;20193;-90
2023/06/13 03:37:56;;;;;;;0.40;0.40;;;;;;;;;;7395958;19;20641;-91
2023/06/13 03:40:23;;;;;;;0.30;0.30;;;;;;;;;;7398688;19;20478;-89
2023/06/13 03:42:53;;;;;;;0.40;0.40;;;;;;;;;;7397032;19;20183;-90
2023/06/13 03:45:19;;;;;;;0.83;0.83;;;;;;;;;;7400310;19;20133;-89
2023/06/13 03:47:46;;;;;;;0.75;0.75;;;;;;;;;;7399157;19;20158;-90
2023/06/13 03:50:13;;;;;;;0.50;0.50;;;;;;;;;;7398452;19;20129;-89
2023/06/13 03:52:40;;;;;;;0.30;0.30;;;;;;;;;;7397031;19;20149;-89
2023/06/13 03:55:07;;;;;;;0.73;0.73;;;;;;;;;;7399255;19;20129;-90
2023/06/13 03:57:35;;;;;;;0.30;0.30;;;;;;;;;;7397043;19;20149;-91
2023/06/13 04:00:04;;;;;;;0.63;0.63;;;;;;;;;;7392225;19;20132;-91
2023/06/13 04:02:31;;;;;;;0.30;0.30;;;;;;;;;;7397460;19;20156;-90
2023/06/13 04:04:58;;;;;;;0.33;0.33;;;;;;;;;;7398749;19;20138;-90
2023/06/13 04:07:25;;;;;;;0.47;0.47;;;;;;;;;;7397453;19;20128;-90
2023/06/13 04:09:51;;;;;;;1.00;1.00;;;;;;;;;;7398031;19;20143;-91
2023/06/13 04:12:20;;;;;;;0.30;0.30;;;;;;;;;;7397199;19;20166;-91
2023/06/13 04:14:47;;;;;;;0.30;0.30;;;;;;;;;;7396976;19;20133;-89
2023/06/13 04:17:13;;;;;;;0.60;0.60;;;;;;;;;;7394904;19;20605;-91
2023/06/13 04:19:40;;;;;;;0.30;0.30;;;;;;;;;;7394751;19;20137;-91
2023/06/13 04:22:17;;;;;;;0.70;0.70;;;;;;;;;;7394587;19;20165;-89
2023/06/13 04:25:47;;;;;;;0.60;0.60;;;;;;;;;;7396463;19;20642;-92
2023/06/13 04:28:24;;;;;;;0.33;0.33;;;;;;;;;;7394376;19;20152;-89
2023/06/13 04:30:51;;;;;;;0.50;0.50;;;;;;;;;;7391393;19;20196;-90
2023/06/13 04:33:18;;;;;;;0.70;0.70;;;;;;;;;;7393168;19;20524;-91
2023/06/13 04:35:46;;;;;;;1.17;1.03;;;;;;;;;;7389523;19;22024;-90
2023/06/13 04:38:20;;;;;;;0.40;0.40;;;;;;;;;;7384710;19;20137;-89
2023/06/13 04:40:47;;;;;;;0.57;0.57;;;;;;;;;;7392658;19;20160;-90
2023/06/13 04:43:17;;;;;;;1.00;1.00;;;;;;;;;;7390475;19;20179;-89
2023/06/13 04:45:44;;;;;;;0.93;0.93;;;;;;;;;;7392180;19;20136;-90
2023/06/13 04:48:11;;;;;;;0.40;0.40;;;;;;;;;;7393221;19;20641;-90
2023/06/13 04:50:40;;;;;;;0.43;0.43;;;;;;;;;;7392627;19;20559;-90
2023/06/13 04:53:11;;;;;;;0.77;0.77;;;;;;;;;;7390275;19;20180;-90
2023/06/13 04:55:38;;;;;;;0.47;0.47;;;;;;;;;;7390459;19;20166;-90
2023/06/13 04:58:06;;;;;;;0.50;0.50;;;;;;;;;;7389379;19;20140;-90
2023/06/13 05:00:32;;;;;;;0.60;0.60;;;;;;;;;;7396500;19;20148;-91
2023/06/13 05:03:02;;;;;;;1.03;1.03;;;;;;;;;;7398057;19;20189;-89
2023/06/13 05:05:29;;;;;;;0.50;0.50;;;;;;;;;;7399823;19;20137;-89
2023/06/13 05:07:59;;;;;;;0.40;0.40;;;;;;;;;;7397684;19;20150;-90
2023/06/13 05:10:26;;;;;;;1.20;0.60;;;;;;;;;;7395934;19;20138;-90
2023/06/13 05:12:53;;;;;;;0.50;0.50;;;;;;;;;;7395742;19;20539;-90
2023/06/13 05:15:20;;;;;;;0.57;0.57;;;;;;;;;;7393630;19;20146;-90
2023/06/13 05:17:54;;;;;;;0.63;0.63;;;;;;;;;;7397510;19;20168;-91
2023/06/13 05:20:26;;;;;;;0.33;0.33;;;;;;;;;;7395989;19;20141;-91
2023/06/13 05:22:53;;;;;;;0.40;0.40;;;;;;;;;;7394939;19;20149;-90
2023/06/13 05:25:20;;;;;;;0.65;0.65;;;;;;;;;;7397631;19;20173;-90
2023/06/13 05:27:51;;;;;;;0.77;0.77;;;;;;;;;;7392761;19;20665;-88
2023/06/13 05:30:18;;;;;;;0.93;0.50;;;;;;;;;;7395135;19;20133;-91
2023/06/13 05:32:45;;;;;;;1.00;0.80;;;;;;;;;;7394250;19;20212;-88
2023/06/13 05:35:12;;;;;;;1.07;0.80;;;;;;;;;;7402058;19;20167;-88
2023/06/13 05:37:38;;;;;;;0.53;0.53;;;;;;;;;;7395672;19;20149;-91
2023/06/13 05:40:06;;;;;;;0.93;0.57;;;;;;;;;;7398092;19;20597;-89
2023/06/13 05:42:35;;;;;;;0.37;0.37;;;;;;;;;;7399305;19;20175;-88
2023/06/13 05:45:06;;;;;;;1.60;0.97;;;;;;;;;;7391801;19;20144;-91
2023/06/13 05:47:33;;;;;;;1.03;1.03;;;;;;;;;;7394342;19;20137;-88
2023/06/13 05:49:59;;;;;;;0.90;0.90;;;;;;;;;;7387634;19;20137;-88
2023/06/13 05:52:26;;;;;;;0.70;0.70;;;;;;;;;;7389671;19;20148;-88
2023/06/13 05:54:53;;;;;;;0.43;0.43;;;;;;;;;;7389961;19;20180;-88
2023/06/13 05:57:20;;;;;;;0.50;0.50;;;;;;;;;;7389613;19;20144;-88
2023/06/13 05:59:46;;;;;;;0.40;0.40;;;;;;;;;;7390392;19;20137;-90
2023/06/13 06:02:13;;;;;;;0.68;0.68;;;;;;;;;;7393204;19;20163;-88
2023/06/13 06:04:40;;;;;;;0.55;0.55;;;;;;;;;;7394579;19;20141;-88
2023/06/13 06:07:07;;;;;;;0.45;0.45;;;;;;;;;;7397487;19;20136;-88
2023/06/13 06:09:34;;;;;;;1.23;0.77;;;;;;;;;;7389046;19;20155;-88
2023/06/13 06:12:00;;;;;;;1.88;0.65;;;;;;;;;;7388466;19;20152;-87
2023/06/13 06:14:27;;;;;;;0.60;0.60;;;;;;;;;;7391604;19;20145;-87
2023/06/13 06:16:55;;;;;;;0.40;0.40;;;;;;;;;;7391745;19;20137;-88
2023/06/13 06:19:21;;;;;;;0.65;0.65;;;;;;;;;;7397376;19;20137;-87
2023/06/13 06:21:48;;;;;;;0.47;0.47;;;;;;;;;;7393221;19;20161;-88
2023/06/13 06:24:15;;;;;;;0.73;0.73;;;;;;;;;;7394665;19;20160;-87
2023/06/13 06:26:42;;;;;;;0.40;0.40;;;;;;;;;;7396283;19;20546;-88
2023/06/13 06:29:08;;;;;;;0.93;0.65;;;;;;;;;;7395228;19;20136;-87
2023/06/13 06:31:35;;;;;;;0.55;0.55;;;;;;;;;;7388900;19;20172;-88
2023/06/13 06:34:02;;;;;;;0.88;0.50;;;;;;;;;;7389988;19;20631;-88
2023/06/13 06:36:29;;;;;;;0.40;0.40;;;;;;;;;;7392710;19;20134;-89
2023/06/13 06:38:55;;;;;;;0.35;0.35;;;;;;;;;;7392366;19;20208;-90
2023/06/13 06:41:22;;;;;;;0.73;0.43;;;;;;;;;;7390014;19;20640;-89
2023/06/13 06:43:49;;;;;;;0.60;0.60;;;;;;;;;;7393439;19;20144;-89
2023/06/13 06:46:16;;;;;;;0.57;0.57;;;;;;;;;;7389525;19;20624;-89
2023/06/13 06:48:42;;;;;;;0.55;0.55;;;;;;;;;;7380271;19;20142;-89
2023/06/13 06:51:09;;;;;;;0.40;0.40;;;;;;;;;;7392035;19;20140;-87
2023/06/13 06:53:39;;;;;;;1.25;1.25;;;;;;;;;;7385770;19;20173;-90
2023/06/13 06:56:06;;;;;;;0.63;0.63;;;;;;;;;;7387825;19;20618;-90
2023/06/13 06:58:32;;;;;;;0.70;0.70;;;;;;;;;;7385419;19;20156;-90
2023/06/13 07:01:00;;;;;;;0.40;0.40;;;;;;;;;;7387176;19;20151;-90
2023/06/13 07:03:26;;;;;;;0.75;0.75;;;;;;;;;;7393559;19;20168;-90
2023/06/13 07:05:55;;;;;;;0.40;0.40;;;;;;;;;;7395673;19;20160;-88
2023/06/13 07:08:21;;;;;;;0.40;0.40;;;;;;;;;;7395959;19;20145;-90
2023/06/13 07:10:48;;;;;;;0.70;0.70;;;;;;;;;;7395236;19;20137;-89
2023/06/13 07:13:17;;;;;;;0.50;0.50;;;;;;;;;;7402589;19;20206;-88
2023/06/13 07:15:44;;;;;;;0.38;0.38;;;;;;;;;;7403000;19;20157;-88
2023/06/13 07:18:11;;;;;;;0.60;0.60;;;;;;;;;;7399770;19;20137;-88
2023/06/13 07:20:38;;;;;;;0.30;0.30;;;;;;;;;;7404541;19;20133;-88
2023/06/13 07:23:06;;;;;;;0.50;0.50;;;;;;;;;;7402587;19;20173;-90
2023/06/13 07:25:33;;;;;;;0.73;0.65;;;;;;;;;;7406901;19;20144;-89
2023/06/13 07:27:59;;;;;;;0.60;0.60;;;;;;;;;;7401054;19;20204;-88
2023/06/13 07:30:26;;;;;;;0.75;0.60;;;;;;;;;;7403899;19;20148;-87
2023/06/13 07:32:52;;;;;;;0.70;0.70;;;;;;;;;;7398638;19;20180;-90
2023/06/13 07:35:23;;;;;;;0.70;0.50;;;;;;;;;;7398194;19;20681;-90
2023/06/13 07:37:52;;;;;;;0.57;0.57;;;;;;;;;;7405174;19;20160;-88
2023/06/13 07:40:21;;;;;;;0.45;0.45;;;;;;;;;;7405571;19;20212;-88
2023/06/13 07:42:48;;;;;;;1.15;0.85;;;;;;;;;;7404615;19;20618;-89
2023/06/13 07:45:15;;;;;;;0.30;0.30;;;;;;;;;;7404173;19;20132;-88
2023/06/13 07:47:42;;;;;;;0.63;0.63;;;;;;;;;;7406195;19;20163;-88
2023/06/13 07:50:08;;;;;;;0.40;0.40;;;;;;;;;;7405145;19;20692;-89
2023/06/13 07:52:35;;;;;;;0.40;0.40;;;;;;;;;;7401736;19;20155;-88
2023/06/13 07:55:02;;;;;;;0.60;0.60;;;;;;;;;;7405271;19;20145;-90
2023/06/13 07:57:29;;;;;;;0.98;0.93;;;;;;;;;;7406473;19;20229;-87
2023/06/13 08:00:17;;;;;;;0.38;0.38;;;;;;;;;;7401651;19;20148;-86
2023/06/13 08:02:45;;;;;;;1.02;0.95;;;;;;;;;;7401561;19;20163;-87
2023/06/13 08:05:13;;;;;;;0.95;0.95;;;;;;;;;;7402491;19;20180;-87
2023/06/13 08:07:41;;;;;;;0.47;0.47;;;;;;;;;;7410212;19;20133;-92
2023/06/13 08:10:08;;;;;;;0.60;0.60;;;;;;;;;;7432578;19;20173;-91
2023/06/13 08:12:35;;;;;;;0.52;0.52;;;;;;;;;;7428134;19;20533;-87
2023/06/13 08:15:02;;;;;;;0.68;0.68;;;;;;;;;;7430740;19;20129;-87
2023/06/13 08:17:29;;;;;;;0.63;0.63;;;;;;;;;;7428315;19;20147;-91
2023/06/13 08:19:56;;;;;;;0.93;0.93;;;;;;;;;;7432548;19;20148;-92
2023/06/13 08:22:22;;;;;;;0.80;0.80;;;;;;;;;;7429563;19;20397;-92
2023/06/13 08:24:49;;;;;;;0.80;0.73;;;;;;;;;;7432616;19;20176;-92
2023/06/13 08:27:16;;;;;;;0.80;0.80;;;;;;;;;;7421233;19;20212;-91
2023/06/13 08:29:43;;;;;;;1.15;1.05;;;;;;;;;;7396882;19;20137;-89
2023/06/13 08:32:10;;;;;;;0.80;0.80;;;;;;;;;;7393996;19;20171;-90
2023/06/13 08:34:37;;;;;;;1.10;1.02;;;;;;;;;;7397461;19;20165;-89
2023/06/13 08:37:04;;;;;;;0.73;0.68;;;;;;;;;;7403321;19;20517;-88
2023/06/13 08:39:31;;;;;;;0.57;0.57;;;;;;;;;;7401844;19;20593;-89
2023/06/13 08:41:58;;;;;;;0.40;0.40;;;;;;;;;;7400727;19;20910;-89
2023/06/13 08:44:26;;;;;;;0.80;0.80;;;;;;;;;;7398667;19;20148;-87
2023/06/13 08:46:53;;;;;;;1.10;0.77;;;;;;;;;;7403750;19;20155;-89
2023/06/13 08:49:21;;;;;;;1.10;1.00;;;;;;;;;;7400980;19;20153;-90
2023/06/13 08:51:51;;;;;;;1.25;0.80;;;;;;;;;;7399555;19;20172;-90
2023/06/13 08:54:22;;;;;;;1.55;1.35;;;;;;;;;;7404420;19;20141;-93
2023/06/13 08:56:52;;;;;;;1.08;0.75;;;;;;;;;;7396883;19;20253;-91
2023/06/13 08:59:30;;;;;;;0.68;0.68;;;;;;;;;;7393110;19;20181;-93
2023/06/13 09:01:56;;;;;;;1.10;0.85;;;;;;;;;;7393752;19;20168;-92
2023/06/13 09:04:36;;;;;;;1.58;0.68;;;;;;;;;;7397501;19;20152;-91
2023/06/13 09:07:10;;;;;;;0.77;0.75;;;;;;;;;;7397175;19;20143;-90
2023/06/13 09:10:26;;;;;;;0.57;0.57;;;;;;;;;;7391021;19;20159;-92
2023/06/13 09:12:53;;;;;;;1.10;0.80;;;;;;;;;;7393697;19;20256;-93
2023/06/13 09:15:26;;;;;;;0.68;0.68;;;;;;;;;;7392467;19;20137;-91
2023/06/13 09:17:56;;;;;;;0.50;0.50;;;;;;;;;;7396745;19;20164;-90
2023/06/13 09:20:25;;;;;;;1.60;0.98;;;;;;;;;;7399020;19;20799;-88
2023/06/13 09:22:52;;;;;;;2.67;1.15;;;;;;;;;;7401030;19;20188;-87
2023/06/13 09:25:21;;;;;;;0.70;0.70;;;;;;;;;;7399496;19;20143;-90
2023/06/13 09:27:47;;;;;;;0.55;0.55;;;;;;;;;;7394211;19;20152;-90
2023/06/13 09:30:15;;;;;;;0.55;0.55;;;;;;;;;;7391142;19;20131;-92
2023/06/13 09:32:47;;;;;;;1.08;1.08;;;;;;;;;;7392162;19;20835;-90
2023/06/13 09:35:14;;;;;;;1.60;1.50;;;;;;;;;;7388930;19;20148;-91
2023/06/13 09:37:57;;;;;;;0.65;0.65;;;;;;;;;;7392446;19;20137;-90
2023/06/13 09:40:24;;;;;;;0.70;0.70;;;;;;;;;;7391072;19;20671;-90
2023/06/13 09:42:54;;;;;;;0.60;0.60;;;;;;;;;;7392959;19;20145;-91
2023/06/13 09:45:31;;;;;;;0.68;0.68;;;;;;;;;;7394897;19;20173;-90
2023/06/13 09:47:58;;;;;;;0.93;0.77;;;;;;;;;;7394681;19;20141;-91
2023/06/13 09:50:25;;;;;;;0.88;0.82;;;;;;;;;;7395437;19;20136;-90
2023/06/13 09:52:51;;;;;;;0.75;0.75;;;;;;;;;;7390370;19;20152;-91
2023/06/13 09:55:20;;;;;;;0.43;0.43;;;;;;;;;;7394957;19;20619;-90
2023/06/13 09:57:51;;;;;;;1.27;1.25;;;;;;;;;;7395520;19;20133;-92
2023/06/13 10:00:37;;;;;;;0.98;0.63;;;;;;;;;;7402006;19;20156;-91
2023/06/13 10:03:05;;;;;;;0.65;0.65;;;;;;;;;;7396476;19;20175;-92
2023/06/13 10:05:49;;;;;;;0.82;0.82;;;;;;;;;;7395476;19;20145;-90
2023/06/13 10:08:19;;;;;;;0.50;0.50;;;;;;;;;;7397059;19;21416;-91
2023/06/13 10:10:50;;;;;;;0.70;0.70;;;;;;;;;;7395926;19;20159;-91
2023/06/13 10:13:42;;;;;;;0.88;0.88;;;;;;;;;;7399432;19;20177;-90
2023/06/13 10:16:11;;;;;;;1.85;0.98;;;;;;;;;;7396018;19;20141;-89
2023/06/13 10:18:41;;;;;;;1.08;1.02;;;;;;;;;;7393568;19;20601;-90
2023/06/13 10:21:11;;;;;;;0.65;0.65;;;;;;;;;;7400417;19;20154;-90
2023/06/13 10:23:49;;;;;;;1.00;0.80;;;;;;;;;;7398998;19;20137;-90
2023/06/13 10:26:27;;;;;;;0.82;0.60;;;;;;;;;;7401378;19;20203;-89
2023/06/13 10:29:17;;;;;;;0.93;0.93;;;;;;;;;;7394474;19;20133;-90
2023/06/13 10:31:56;;;;;;;0.50;0.50;;;;;;;;;;7396763;19;20160;-90
2023/06/13 10:35:01;;;;;;;0.88;0.88;;;;;;;;;;7398480;19;20151;-90
2023/06/13 10:38:05;;;;;;;1.00;0.98;;;;;;;;;;7402328;19;20628;-89
2023/06/13 10:40:51;;;;;;;0.60;0.60;;;;;;;;;;7401686;19;20155;-89
2023/06/13 10:43:38;;;;;;;0.77;0.77;;;;;;;;;;7407030;19;20602;-90
2023/06/13 10:46:07;;;;;;;0.95;0.95;;;;;;;;;;7404130;19;20159;-89
2023/06/13 10:48:38;;;;;;;0.93;0.93;;;;;;;;;;7406518;19;20159;-89
2023/06/13 10:51:09;;;;;;;0.70;0.70;;;;;;;;;;7404553;19;20148;-89
2023/06/13 10:53:37;;;;;;;0.50;0.50;;;;;;;;;;7403915;19;20166;-89
2023/06/13 10:56:07;;;;;;;0.70;0.70;;;;;;;;;;7404268;19;20172;-90
2023/06/13 10:58:35;;;;;;;0.80;0.80;;;;;;;;;;7407528;19;20129;-91
2023/06/13 11:01:24;;;;;;;0.90;0.70;;;;;;;;;;7399310;19;20151;-91
2023/06/13 11:04:06;;;;;;;0.95;0.90;;;;;;;;;;7401936;19;20168;-90
2023/06/13 11:06:33;;;;;;;0.85;0.85;;;;;;;;;;7404107;19;20148;-89
2023/06/13 11:09:20;;;;;;;0.60;0.60;;;;;;;;;;7403981;19;20150;-89
2023/06/13 11:11:57;;;;;;;0.75;0.75;;;;;;;;;;7407584;19;20157;-91
2023/06/13 11:14:25;;;;;;;1.05;0.93;;;;;;;;;;7396647;19;20196;-92
2023/06/13 11:16:53;;;;;;;0.75;0.75;;;;;;;;;;7395900;19;20141;-92
2023/06/13 11:19:26;;;;;;;0.90;0.90;;;;;;;;;;7395638;19;20621;-91
2023/06/13 11:22:02;;;;;;;0.80;0.80;;;;;;;;;;7395771;19;20562;-92
2023/06/13 11:24:37;;;;;;;0.57;0.57;;;;;;;;;;7397243;19;20538;-93
2023/06/13 11:27:20;;;;;;;1.35;0.88;;;;;;;;;;7399275;19;20614;-91
2023/06/13 11:29:48;;;;;;;0.90;0.90;;;;;;;;;;7400725;19;20149;-92
2023/06/13 11:32:16;;;;;;;0.80;0.80;;;;;;;;;;7401793;19;20174;-90
2023/06/13 11:34:48;;;;;;;0.68;0.68;;;;;;;;;;7403259;19;20140;-91
2023/06/13 11:37:44;;;;;;;0.98;0.88;;;;;;;;;;7402470;19;20141;-90
2023/06/13 11:40:17;;;;;;;0.60;0.60;;;;;;;;;;7402020;19;20148;-92
2023/06/13 11:42:45;;;;;;;0.75;0.75;;;;;;;;;;7395340;19;20145;-90
2023/06/13 11:45:11;;;;;;;1.05;1.05;;;;;;;;;;7398512;19;20619;-90
2023/06/13 11:47:38;;;;;;;1.85;0.70;;;;;;;;;;7396388;19;20149;-89
2023/06/13 11:50:06;;;;;;;0.88;0.77;;;;;;;;;;7401118;19;20560;-90
2023/06/13 11:52:32;;;;;;;0.88;0.88;;;;;;;;;;7405044;19;20161;-90
2023/06/13 11:54:59;;;;;;;0.82;0.82;;;;;;;;;;7402116;19;20137;-90
2023/06/13 11:57:47;;;;;;;0.88;0.88;;;;;;;;;;7399968;19;20606;-92
2023/06/13 12:00:14;;;;;;;0.75;0.75;;;;;;;;;;7401311;19;20620;-90
2023/06/13 12:02:43;;;;;;;0.50;0.50;;;;;;;;;;7396818;19;20153;-90
2023/06/13 12:05:11;;;;;;;0.77;0.77;;;;;;;;;;7400796;19;20674;-92
2023/06/13 12:07:39;;;;;;;0.80;0.80;;;;;;;;;;7399159;19;20484;-91
2023/06/13 12:10:06;;;;;;;1.48;1.05;;;;;;;;;;7400831;19;20495;-92
2023/06/13 12:12:32;;;;;;;0.60;0.60;;;;;;;;;;7399047;19;20175;-91
2023/06/13 12:15:02;;;;;;;0.60;0.60;;;;;;;;;;7399673;19;20237;-92
2023/06/13 12:17:29;;;;;;;1.50;0.80;;;;;;;;;;7398593;19;20614;-92
2023/06/13 12:20:10;;;;;;;1.30;1.10;;;;;;;;;;7397252;19;20153;-90
2023/06/13 12:22:37;;;;;;;0.57;0.57;;;;;;;;;;7395869;19;20168;-90
2023/06/13 12:25:05;;;;;;;1.02;1.00;;;;;;;;;;7398238;19;20147;-92
2023/06/13 12:27:32;;;;;;;0.80;0.80;;;;;;;;;;7397337;19;20223;-92
2023/06/13 12:30:10;;;;;;;0.82;0.82;;;;;;;;;;7395475;19;20615;-93
2023/06/13 12:32:39;;;;;;;0.70;0.70;;;;;;;;;;7391543;19;20664;-92
2023/06/13 12:35:05;;;;;;;1.00;0.90;;;;;;;;;;7396919;19;20157;-92
2023/06/13 12:37:35;;;;;;;0.93;0.90;;;;;;;;;;7396464;19;20149;-91
2023/06/13 12:40:13;;;;;;;0.50;0.50;;;;;;;;;;7399047;19;20135;-91
2023/06/13 12:42:42;;;;;;;1.33;1.23;;;;;;;;;;7397949;19;20239;-91
2023/06/13 12:45:10;;;;;;;0.70;0.70;;;;;;;;;;7396514;19;20133;-91
2023/06/13 12:47:37;;;;;;;0.60;0.60;;;;;;;;;;7402571;19;20139;-92
2023/06/13 12:50:10;;;;;;;1.00;1.00;;;;;;;;;;7402274;19;20652;-91
2023/06/13 12:52:38;;;;;;;0.47;0.47;;;;;;;;;;7401244;19;20789;-91
2023/06/13 12:55:05;;;;;;;0.60;0.60;;;;;;;;;;7406146;19;20133;-90
2023/06/13 12:57:32;;;;;;;0.90;0.90;;;;;;;;;;7404657;19;20168;-90
2023/06/13 13:00:00;;;;;;;0.77;0.77;;;;;;;;;;7404333;19;20144;-90
2023/06/13 13:02:27;;;;;;;0.90;0.90;;;;;;;;;;7403983;19;20153;-91
2023/06/13 13:04:59;;;;;;;0.88;0.80;;;;;;;;;;7404305;19;20154;-90
2023/06/13 13:07:28;;;;;;;0.68;0.68;;;;;;;;;;7401071;19;20816;-91
2023/06/13 13:09:55;;;;;;;0.50;0.50;;;;;;;;;;7403105;19;20141;-90
2023/06/13 13:12:22;;;;;;;0.75;0.75;;;;;;;;;;7400809;19;20192;-90
2023/06/13 13:14:49;;;;;;;0.75;0.75;;;;;;;;;;7401801;19;20137;-92
2023/06/13 13:17:16;;;;;;;1.02;1.02;;;;;;;;;;7395971;19;20162;-91
2023/06/13 13:19:45;;;;;;;0.75;0.75;;;;;;;;;;7399009;19;20141;-91
2023/06/13 13:22:12;;;;;;;1.30;1.20;;;;;;;;;;7399439;19;20177;-90
2023/06/13 13:24:39;;;;;;;1.50;1.38;;;;;;;;;;7406013;19;20508;-91
2023/06/13 13:27:06;;;;;;;0.73;0.73;;;;;;;;;;7404208;19;20197;-91
2023/06/13 13:29:33;;;;;;;0.70;0.70;;;;;;;;;;7406902;19;20373;-91
2023/06/13 13:32:00;;;;;;;0.68;0.68;;;;;;;;;;7398429;19;20204;-93
2023/06/13 13:34:27;;;;;;;0.93;0.93;;;;;;;;;;7400654;19;20161;-89
2023/06/13 13:36:53;;;;;;;1.80;0.95;;;;;;;;;;7404465;19;20154;-91
2023/06/13 13:39:22;;;;;;;1.08;1.05;;;;;;;;;;7411054;19;20213;-91
2023/06/13 13:41:50;;;;;;;1.48;0.75;;;;;;;;;;7406751;19;20173;-91
2023/06/13 13:44:17;;;;;;;2.45;0.98;;;;;;;;;;7395791;19;20133;-91
2023/06/13 13:46:44;;;;;;;1.52;0.98;;;;;;;;;;7397029;19;20598;-93
2023/06/13 13:49:10;;;;;;;1.00;1.00;;;;;;;;;;7400078;19;20609;-92
2023/06/13 13:51:37;;;;;;;4.63;1.33;;;;;;;;;;7408684;19;20617;-91
2023/06/13 13:54:05;;;;;;;1.15;1.15;;;;;;;;;;7397132;19;20154;-92
2023/06/13 13:56:32;;;;;;;1.23;1.23;;;;;;;;;;7399583;19;20152;-90
2023/06/13 13:59:00;;;;;;;0.60;0.60;;;;;;;;;;7401643;19;20605;-93
2023/06/13 14:01:27;;;;;;;0.80;0.80;;;;;;;;;;7412638;19;20172;-92
2023/06/13 14:03:53;;;;;;;0.95;0.95;;;;;;;;;;7405688;19;20172;-91
2023/06/13 14:06:20;;;;;;;0.70;0.70;;;;;;;;;;7410189;19;20140;-94
2023/06/13 14:08:47;;;;;;;0.73;0.73;;;;;;;;;;7410778;19;20156;-92
2023/06/13 14:11:14;;;;;;;0.80;0.80;;;;;;;;;;7396419;19;20496;-93
2023/06/13 14:13:41;;;;;;;0.90;0.90;;;;;;;;;;7396025;19;20133;-92
2023/06/13 14:16:08;;;;;;;0.90;0.80;;;;;;;;;;7393842;19;20137;-91
2023/06/13 14:18:35;;;;;;;1.52;1.42;;;;;;;;;;7395382;19;20141;-92
2023/06/13 14:21:02;;;;;;;0.90;0.90;;;;;;;;;;7393647;19;20476;-92
2023/06/13 14:23:28;;;;;;;0.68;0.68;;;;;;;;;;7393395;19;20172;-92
2023/06/13 14:25:55;;;;;;;0.52;0.52;;;;;;;;;;7398378;19;20137;-91
2023/06/13 14:28:22;;;;;;;0.80;0.80;;;;;;;;;;7400043;19;20135;-92
2023/06/13 14:30:48;;;;;;;0.98;0.98;;;;;;;;;;7395249;19;20151;-92
2023/06/13 15:04:03;;;;;;;0.65;0.65;;;;;;;;;;7394927;19;20164;-88
2023/06/13 15:06:31;;;;;;;0.70;0.70;;;;;;;;;;7398037;19;20250;-86
2023/06/13 15:09:00;;;;;;;0.60;0.60;;;;;;;;;;7394980;19;20140;-89
2023/06/13 15:11:27;;;;;;;0.95;0.95;;;;;;;;;;7394717;19;20162;-88
2023/06/13 15:13:53;;;;;;;1.33;1.08;;;;;;;;;;7394643;19;20182;-88
2023/06/13 15:16:21;;;;;;;0.95;0.95;;;;;;;;;;7391043;19;20141;-87
2023/06/13 15:18:48;;;;;;;0.90;0.80;;;;;;;;;;7398193;19;20141;-89
2023/06/13 15:21:15;;;;;;;0.98;0.98;;;;;;;;;;7391471;19;20145;-88
2023/06/13 15:23:42;;;;;;;0.50;0.50;;;;;;;;;;7402186;19;20139;-88
2023/06/13 15:26:09;;;;;;;1.50;1.13;;;;;;;;;;7396403;19;20149;-91
